Greenwood Village, Colorado
Current Conditions -  °F | °C
As of 2:53 AM on Monday 22 Dec 2014 (Local Time) from KAPA Reporting Station
Overcast Overcast  
Wind Chill: 32°   Ceiling: 4500
Heat Index: 32°   Visibility: 9mi
Dew Point: 30°   Wind: 3mph
Humidity: 92%   Direction: 360°N
Pressure: 29.72"   Gusts: NA
Location:  39.6443°N, 104.983°W
Report Text: KAPA 220953Z 36003KT 9SM BKN045 BKN070 OVC100 00/M01 A2972 RMK AO2 SNE48 SLP065 P0000 T00001011
Loading
Personal Weather Stations






























Interactive Weather Map New forecast layout! Learn more

10-Day Weather Forecast

Advertisements
Track Severe Weather on mobile